FW2739 Weather Reports


Display with metric or nautical units.
time (UTC)temp
F
wind
direction
speed
MPH
gust
MPH
rain 1hr
in
rain 24hr
in
rain mn
in
humidity
%
barometer
mb
20210121203008 40 219 3.0 13.0 0.00 0.18 0.18 47 1004.7
20210121201511 41 220 4.0 11.0 0.01 0.18 0.18 45 1004.7
20210121200104 41 94 2.0 14.0 0.02 0.18 0.18 46 1004.4
20210121194653 41 265 3.0 9.0 0.03 0.18 0.18 46 1004.7
20210121193330 42 315 2.0 5.0 0.04 0.18 0.18 48 1004.6
20210121191701 41 170 7.0 18.0 0.05 0.17 0.17 47 1004.4
20210121190139 41 263 3.0 12.0 0.05 0.16 0.16 48 1004.8
20210121184722 41 314 3.0 9.0 0.05 0.16 0.15 49 1004.8
20210121183129 40 273 4.0 14.0 0.06 0.15 0.14 49 1005.1
20210121181608 40 208 3.0 17.0 0.05 0.13 0.12 50 1005.6
20210121180133 40 19 4.0 13.0 0.05 0.12 0.11 51 1005.6
20210121174613 40 229 4.0 12.0 0.06 0.11 0.10 51 1005.6
20210121173153 39 188 3.0 12.0 0.05 0.09 0.08 53 1005.8
20210121171641 39 159 4.0 11.0 0.05 0.08 0.07 51 1006.1
20210121170044 39 272 3.0 12.0 0.04 0.06 0.05 53 1006.5
20210121164538 38 227 4.0 10.0 0.03 0.05 0.04 53 1006.8
20210121163045 37 238 4.0 10.0 0.03 0.04 0.03 54 1007.0
20210121161600 37 238 4.0 12.0 0.02 0.03 0.02 56 1007.5
20210121160110 36 207 4.0 11.0 0.01 0.02 0.01 56 1007.8
20210121154549 36 211 2.0 6.0 0.01 0.02 0.01 57 1008.1
20210121153037 34 237 2.0 6.0 0.00 0.01 0.00 59 1008.3
20210121151524 33 224 1.0 8.0 0.00 0.01 0.00 60 1008.4
20210121150221 32 227 2.0 8.0 0.00 0.01 0.00 60 1008.3
20210121144646 31 252 3.0 6.0 0.00 0.01 0.00 61 1008.3
20210121143142 30 184 1.0 6.0 0.00 0.01 0.00 63 1008.3
20210121141617 28 168 0.0 7.0 0.00 0.01 0.00 64 1008.3
20210121140054 27 220 1.0 9.0 0.00 0.01 0.00 65 1008.5
20210121134604 26 203 1.0 4.0 0.00 0.01 0.00 65 1008.5
20210121133052 26 196 2.0 8.0 0.00 0.01 0.00 65 1008.6
20210121131600 26 188 0.0 4.0 0.00 0.01 0.00 64 1008.4
20210121130143 26 144 1.0 4.0 0.00 0.01 0.00 65 1008.4
20210121124551 26 162 0.0 5.0 0.00 0.01 0.00 64 1008.3
20210121123130 26 191 1.0 5.0 0.00 0.01 0.00 64 1008.3
20210121121601 26 178 0.0 6.0 0.00 0.01 0.00 63 1008.2
20210121120135 26 190 1.0 6.0 0.00 0.01 0.00 62 1008.2
20210121114637 26 245 3.0 8.0 0.00 0.01 0.00 62 1008.2
20210121113036 26 211 1.0 12.0 0.00 0.01 0.00 62 1008.1
20210121111607 26 214 2.0 8.0 0.00 0.01 0.00 62 1008.1
20210121110039 26 185 2.0 7.0 0.00 0.01 0.00 62 1008.1
20210121104639 26 206 3.0 7.0 0.00 0.01 0.00 61 1008.2
20210121103043 26 194 2.0 7.0 0.00 0.01 0.00 61 1008.4
20210121101532 26 234 1.0 4.0 0.00 0.01 0.00 61 1008.4
20210121100041 26 131 2.0 6.0 0.00 0.01 0.00 60 1008.4
20210121094604 27 213 2.0 12.0 0.00 0.01 0.00 59 1008.4
20210121093108 27 205 3.0 9.0 0.00 0.01 0.00 59 1008.5
20210121091531 27 242 2.0 6.0 0.00 0.01 0.00 59 1008.8
20210121090040 28 252 2.0 8.0 0.00 0.01 0.00 59 1008.9
20210121084553 28 254 1.0 6.0 0.00 0.01 0.00 59 1009.2
20210121083050 28 250 2.0 8.0 0.00 0.01 0.00 60 1009.5
20210121081526 27 195 3.0 10.0 0.00 0.01 0.00 60 1009.8
20210121080039 27 192 3.0 10.0 0.00 0.01 0.00 61 1009.7
20210121074524 26 229 3.0 12.0 0.00 0.01 0.00 62 1010.1
20210121073047 26 303 2.0 9.0 0.00 0.01 0.00 62 1010.5
20210121071525 26 346 3.0 9.0 0.00 0.01 0.00 62 1010.6
20210121070011 26 192 3.0 9.0 0.00 0.01 0.00 62 1011.1
20210121064648 26 69 2.0 10.0 0.00 0.01 0.00 62 1011.2
20210121063239 26 207 3.0 9.0 0.00 0.01 0.00 63 1011.9
20210121061649 26 203 3.0 10.0 0.00 0.01 0.00 64 1012.3
20210121060142 25 209 4.0 9.0 0.00 0.01 0.00 65 1012.9
20210121054554 24 191 3.0 9.0 0.00 0.01 0.00 67 1013.1
20210121053153 23 192 1.0 7.0 0.00 0.01 0.00 67 1012.9
20210121051548 23 202 1.0 11.0 0.00 0.01 0.00 67 1013.0
20210121050053 22 181 2.0 9.0 0.00 0.01 0.00 69 1013.5
20210121044556 21 202 2.0 6.0 0.00 0.01 0.01 69 1013.9
20210121043105 20 181 1.0 8.0 0.00 0.01 0.01 69 1013.5
20210121041636 19 209 2.0 8.0 0.00 0.01 0.01 71 1014.2
20210121040049 18 211 1.0 8.0 0.00 0.01 0.01 72 1014.5
20210121034622 17 299 0.0 2.0 0.00 0.01 0.01 72 1015.2
20210121033112 16 238 0.0 2.0 0.00 0.01 0.01 72 1015.7
20210121031604 15 162 0.0 2.0 0.00 0.01 0.01 72 1015.7
20210121030126 14 138 1.0 4.0 0.00 0.01 0.01 72 1016.2
20210121024613 14 134 0.0 0.0 0.00 0.01 0.01 72 1016.3
20210121023104 14 134 0.0 0.0 0.00 0.01 0.01 71 1017.0
20210121021544 15 134 0.0 2.0 0.00 0.01 0.01 70 1017.3
20210121020031 16 134 0.0 0.0 0.00 0.01 0.01 69 1017.8
20210121014520 17 134 0.0 0.0 0.00 0.01 0.01 68 1018.1
20210121013035 18 134 0.0 0.0 0.00 0.01 0.01 66 1018.4
20210121011519 19 134 0.0 1.0 0.00 0.01 0.01 65 1018.3
20210121010025 20 134 0.0 4.0 0.00 0.01 0.01 64 1018.3
20210121004532 20 162 0.0 2.0 0.00 0.01 0.01 63 1018.5
20210121003017 21 170 0.0 3.0 0.00 0.01 0.01 63 1018.7
20210121001518 21 186 2.0 4.0 0.00 0.01 0.01 62 1019.0
20210121000011 21 175 1.0 5.0 0.00 0.01 0.01 62 1019.2
20210120234640 21 188 1.0 3.0 0.00 0.01 0.01 63 1019.5
20210120233211 20 200 0.0 6.0 0.00 0.01 0.01 62 1019.7
20210120231720 20 185 0.0 3.0 0.00 0.01 0.01 61 1019.8
20210120230205 21 159 0.0 3.0 0.00 0.01 0.01 61 1019.8
20210120224706 21 208 0.0 3.0 0.00 0.01 0.01 61 1019.7
20210120223212 21 208 0.0 3.0 0.00 0.01 0.01 59 1020.0
20210120221620 21 208 0.0 2.0 0.00 0.01 0.01 58 1020.4
20210120220108 22 158 0.0 3.0 0.00 0.01 0.01 57 1019.9
20210120214641 22 158 1.0 3.0 0.00 0.01 0.01 57 1020.3
20210120213219 23 188 1.0 5.0 0.00 0.01 0.01 55 1020.7
20210120211619 23 241 1.0 7.0 0.00 0.01 0.01 55 1021.1
20210120210406 23 130 1.0 3.0 0.00 0.01 0.01 55 1021.2
20210120204654 23 218 0.0 5.0 0.00 0.02 0.01 57 1022.2